Terminal Aerodrome Forecast
Issued by NWS Portland, ME

Home | Current Version | Previous Version | Text Only | Print | Product List | Glossary On
Versions: 1 2 3 4 5 6 7 8 9 10 11 12 13 14 15 16 17 18 19 20 21 22 23
473
FTUS41 KGYX 232005 AAA
TAFPWM
TAF AMD
KPWM 232005Z 2320/2418 06007KT 2SM -RA BR OVC004 WS020/19040KT
     FM232100 07006KT 3SM -DZ BR OVC004
     FM240200 24007KT P6SM SCT120 BKN250=

USA.gov is the U.S. government's official web portal to all federal, state and local government web resources and services.